sensor_id;sensor_type;location;lat;lon;timestamp;pressure;altitude;pressure_sealevel;temperature;humidity
75681;BME280;64294;49.176;16.626;2023-05-14T00:01:47;99717.00;;;9.54;100.00
75681;BME280;64294;49.176;16.626;2023-05-14T00:04:12;99716.78;;;9.46;100.00
75681;BME280;64294;49.176;16.626;2023-05-14T00:06:37;99718.31;;;9.47;100.00
75681;BME280;64294;49.176;16.626;2023-05-14T00:09:03;99717.81;;;9.43;100.00
75681;BME280;64294;49.176;16.626;2023-05-14T00:11:29;99712.25;;;9.37;100.00
75681;BME280;64294;49.176;16.626;2023-05-14T00:13:54;99724.47;;;9.40;100.00
75681;BME280;64294;49.176;16.626;2023-05-14T00:16:20;99706.06;;;9.50;100.00
75681;BME280;64294;49.176;16.626;2023-05-14T00:18:45;99708.53;;;9.59;100.00
75681;BME280;64294;49.176;16.626;2023-05-14T00:21:10;99700.13;;;9.59;100.00
75681;BME280;64294;49.176;16.626;2023-05-14T00:23:37;99701.88;;;9.62;100.00
75681;BME280;64294;49.176;16.626;2023-05-14T00:26:02;99697.72;;;9.75;100.00
75681;BME280;64294;49.176;16.626;2023-05-14T00:28:27;99702.31;;;9.72;100.00
75681;BME280;64294;49.176;16.626;2023-05-14T00:30:53;99709.94;;;9.77;100.00
75681;BME280;64294;49.176;16.626;2023-05-14T00:33:18;99702.00;;;9.81;100.00
75681;BME280;64294;49.176;16.626;2023-05-14T00:35:43;99700.94;;;9.84;100.00
75681;BME280;64294;49.176;16.626;2023-05-14T00:38:09;99701.44;;;9.88;100.00
75681;BME280;64294;49.176;16.626;2023-05-14T00:40:41;99701.69;;;9.85;100.00
75681;BME280;64294;49.176;16.626;2023-05-14T00:43:10;99701.69;;;9.85;100.00
75681;BME280;64294;49.176;16.626;2023-05-14T00:45:35;99705.53;;;9.87;100.00
75681;BME280;64294;49.176;16.626;2023-05-14T00:48:00;99706.81;;;9.86;100.00
75681;BME280;64294;49.176;16.626;2023-05-14T00:50:26;99692.72;;;9.92;100.00
75681;BME280;64294;49.176;16.626;2023-05-14T00:52:52;99702.66;;;9.93;100.00
75681;BME280;64294;49.176;16.626;2023-05-14T00:55:17;99699.84;;;9.93;100.00
75681;BME280;64294;49.176;16.626;2023-05-14T00:57:43;99686.56;;;9.93;100.00
75681;BME280;64294;49.176;16.626;2023-05-14T01:00:09;99693.09;;;10.07;100.00
75681;BME280;64294;49.176;16.626;2023-05-14T01:02:35;99693.63;;;10.06;100.00
75681;BME280;64294;49.176;16.626;2023-05-14T01:05:01;99689.28;;;10.05;100.00
75681;BME280;64294;49.176;16.626;2023-05-14T01:07:35;99685.97;;;10.06;100.00
75681;BME280;64294;49.176;16.626;2023-05-14T01:10:10;99681.81;;;10.13;99.80
75681;BME280;64294;49.176;16.626;2023-05-14T01:12:39;99686.19;;;10.08;100.00
75681;BME280;64294;49.176;16.626;2023-05-14T01:15:09;99679.53;;;10.11;100.00
75681;BME280;64294;49.176;16.626;2023-05-14T01:17:42;99677.25;;;10.10;99.23
75681;BME280;64294;49.176;16.626;2023-05-14T01:20:10;99672.16;;;10.08;98.83
75681;BME280;64294;49.176;16.626;2023-05-14T01:22:36;99669.63;;;10.05;99.21
75681;BME280;64294;49.176;16.626;2023-05-14T01:25:05;99672.44;;;10.05;99.36
75681;BME280;64294;49.176;16.626;2023-05-14T01:27:37;99675.25;;;10.05;99.30
75681;BME280;64294;49.176;16.626;2023-05-14T01:30:24;99671.16;;;10.06;97.70
75681;BME280;64294;49.176;16.626;2023-05-14T01:32:55;99670.66;;;10.01;97.16
75681;BME280;64294;49.176;16.626;2023-05-14T01:35:24;99671.50;;;9.96;97.45
75681;BME280;64294;49.176;16.626;2023-05-14T01:38:03;99674.38;;;9.85;99.29
75681;BME280;64294;49.176;16.626;2023-05-14T01:40:30;99664.50;;;9.79;98.32
75681;BME280;64294;49.176;16.626;2023-05-14T01:42:57;99659.50;;;9.66;98.99
75681;BME280;64294;49.176;16.626;2023-05-14T01:45:23;99660.31;;;9.61;98.25
75681;BME280;64294;49.176;16.626;2023-05-14T01:47:49;99662.47;;;9.44;99.12
75681;BME280;64294;49.176;16.626;2023-05-14T01:50:15;99647.78;;;9.32;100.00
75681;BME280;64294;49.176;16.626;2023-05-14T01:52:40;99654.69;;;9.25;100.00
75681;BME280;64294;49.176;16.626;2023-05-14T01:55:06;99650.59;;;9.32;99.91
75681;BME280;64294;49.176;16.626;2023-05-14T01:57:32;99650.59;;;9.32;100.00
75681;BME280;64294;49.176;16.626;2023-05-14T01:59:57;99649.75;;;9.43;99.25
75681;BME280;64294;49.176;16.626;2023-05-14T02:02:23;99651.19;;;9.55;97.82
75681;BME280;64294;49.176;16.626;2023-05-14T02:04:49;99649.69;;;9.48;97.37
75681;BME280;64294;49.176;16.626;2023-05-14T02:07:17;99642.06;;;9.49;97.18
75681;BME280;64294;49.176;16.626;2023-05-14T02:09:43;99640.00;;;9.49;98.04
75681;BME280;64294;49.176;16.626;2023-05-14T02:12:08;99643.66;;;9.38;97.20
75681;BME280;64294;49.176;16.626;2023-05-14T02:14:35;99646.75;;;9.29;99.21
75681;BME280;64294;49.176;16.626;2023-05-14T02:17:00;99644.53;;;9.22;100.00
75681;BME280;64294;49.176;16.626;2023-05-14T02:19:26;99642.78;;;9.19;100.00
75681;BME280;64294;49.176;16.626;2023-05-14T02:21:51;99641.81;;;9.11;100.00
75681;BME280;64294;49.176;16.626;2023-05-14T02:24:16;99644.34;;;9.09;100.00
75681;BME280;64294;49.176;16.626;2023-05-14T02:26:42;99638.50;;;9.07;100.00
75681;BME280;64294;49.176;16.626;2023-05-14T02:29:07;99637.22;;;9.08;100.00
75681;BME280;64294;49.176;16.626;2023-05-14T02:31:33;99635.41;;;9.10;100.00
75681;BME280;64294;49.176;16.626;2023-05-14T02:34:00;99636.75;;;9.04;100.00
75681;BME280;64294;49.176;16.626;2023-05-14T02:36:26;99630.66;;;9.00;100.00
75681;BME280;64294;49.176;16.626;2023-05-14T02:38:51;99625.34;;;8.91;100.00
75681;BME280;64294;49.176;16.626;2023-05-14T02:41:16;99627.75;;;8.75;100.00
75681;BME280;64294;49.176;16.626;2023-05-14T02:43:45;99620.44;;;8.61;100.00
75681;BME280;64294;49.176;16.626;2023-05-14T02:46:10;99617.63;;;8.61;100.00
75681;BME280;64294;49.176;16.626;2023-05-14T02:48:35;99619.19;;;8.51;100.00
75681;BME280;64294;49.176;16.626;2023-05-14T02:51:04;99618.50;;;8.34;100.00
75681;BME280;64294;49.176;16.626;2023-05-14T02:53:29;99618.28;;;8.20;100.00
75681;BME280;64294;49.176;16.626;2023-05-14T02:55:55;99628.22;;;8.10;100.00
75681;BME280;64294;49.176;16.626;2023-05-14T02:58:20;99623.41;;;8.00;100.00
75681;BME280;64294;49.176;16.626;2023-05-14T03:00:46;99627.47;;;7.93;100.00
75681;BME280;64294;49.176;16.626;2023-05-14T03:03:11;99626.47;;;7.90;100.00
75681;BME280;64294;49.176;16.626;2023-05-14T03:05:36;99630.31;;;7.87;100.00
75681;BME280;64294;49.176;16.626;2023-05-14T03:08:02;99619.38;;;7.84;100.00
75681;BME280;64294;49.176;16.626;2023-05-14T03:10:27;99620.88;;;7.79;100.00
75681;BME280;64294;49.176;16.626;2023-05-14T03:12:53;99620.91;;;7.74;100.00
75681;BME280;64294;49.176;16.626;2023-05-14T03:15:18;99619.13;;;7.71;100.00
75681;BME280;64294;49.176;16.626;2023-05-14T03:17:43;99632.34;;;7.70;100.00
75681;BME280;64294;49.176;16.626;2023-05-14T03:20:09;99629.31;;;7.68;100.00
75681;BME280;64294;49.176;16.626;2023-05-14T03:22:35;99626.25;;;7.72;100.00
75681;BME280;64294;49.176;16.626;2023-05-14T03:25:00;99631.06;;;7.77;100.00
75681;BME280;64294;49.176;16.626;2023-05-14T03:27:26;99629.56;;;7.81;100.00
75681;BME280;64294;49.176;16.626;2023-05-14T03:29:51;99623.94;;;7.87;100.00
75681;BME280;64294;49.176;16.626;2023-05-14T03:32:16;99625.44;;;7.99;100.00
75681;BME280;64294;49.176;16.626;2023-05-14T03:34:42;99622.13;;;8.06;100.00
75681;BME280;64294;49.176;16.626;2023-05-14T03:37:08;99626.19;;;8.05;100.00
75681;BME280;64294;49.176;16.626;2023-05-14T03:39:34;99629.00;;;8.05;100.00
75681;BME280;64294;49.176;16.626;2023-05-14T03:42:00;99628.22;;;8.05;100.00
75681;BME280;64294;49.176;16.626;2023-05-14T03:44:25;99624.66;;;8.04;100.00
75681;BME280;64294;49.176;16.626;2023-05-14T03:46:51;99630.03;;;8.02;100.00
75681;BME280;64294;49.176;16.626;2023-05-14T03:49:16;99618.81;;;8.02;100.00
75681;BME280;64294;49.176;16.626;2023-05-14T03:51:42;99623.16;;;8.03;100.00
75681;BME280;64294;49.176;16.626;2023-05-14T03:54:08;99623.41;;;8.05;100.00
75681;BME280;64294;49.176;16.626;2023-05-14T03:56:33;99620.56;;;8.16;100.00
75681;BME280;64294;49.176;16.626;2023-05-14T03:58:59;99618.75;;;8.25;100.00
75681;BME280;64294;49.176;16.626;2023-05-14T04:01:24;99624.84;;;8.40;100.00
75681;BME280;64294;49.176;16.626;2023-05-14T04:03:50;99624.25;;;8.58;100.00
75681;BME280;64294;49.176;16.626;2023-05-14T04:06:15;99624.44;;;8.71;100.00
75681;BME280;64294;49.176;16.626;2023-05-14T04:08:40;99622.06;;;8.87;100.00
75681;BME280;64294;49.176;16.626;2023-05-14T04:11:06;99624.78;;;9.03;100.00
75681;BME280;64294;49.176;16.626;2023-05-14T04:13:31;99625.72;;;9.17;100.00
75681;BME280;64294;49.176;16.626;2023-05-14T04:15:56;99622.56;;;9.32;100.00
75681;BME280;64294;49.176;16.626;2023-05-14T04:18:22;99619.34;;;9.47;100.00
75681;BME280;64294;49.176;16.626;2023-05-14T04:20:47;99618.97;;;9.61;100.00
75681;BME280;64294;49.176;16.626;2023-05-14T04:23:13;99627.38;;;9.67;100.00
75681;BME280;64294;49.176;16.626;2023-05-14T04:25:38;99614.44;;;9.83;100.00
75681;BME280;64294;49.176;16.626;2023-05-14T04:28:04;99618.13;;;9.96;98.85
75681;BME280;64294;49.176;16.626;2023-05-14T04:30:30;99621.25;;;9.93;98.25
75681;BME280;64294;49.176;16.626;2023-05-14T04:32:55;99624.44;;;10.02;98.32
75681;BME280;64294;49.176;16.626;2023-05-14T04:35:21;99620.47;;;10.17;97.65
75681;BME280;64294;49.176;16.626;2023-05-14T04:37:46;99617.44;;;10.15;96.60
75681;BME280;64294;49.176;16.626;2023-05-14T04:40:17;99622.22;;;10.20;96.38
75681;BME280;64294;49.176;16.626;2023-05-14T04:42:43;99613.47;;;10.29;96.81
75681;BME280;64294;49.176;16.626;2023-05-14T04:45:09;99609.31;;;10.36;96.58
75681;BME280;64294;49.176;16.626;2023-05-14T04:47:34;99609.41;;;10.49;95.63
75681;BME280;64294;49.176;16.626;2023-05-14T04:50:00;99607.50;;;10.57;95.22
75681;BME280;64294;49.176;16.626;2023-05-14T04:52:26;99610.56;;;10.78;93.46
75681;BME280;64294;49.176;16.626;2023-05-14T04:54:51;99610.09;;;10.92;91.51
75681;BME280;64294;49.176;16.626;2023-05-14T04:57:17;99608.22;;;11.01;90.83
75681;BME280;64294;49.176;16.626;2023-05-14T04:59:42;99603.38;;;11.14;89.25
75681;BME280;64294;49.176;16.626;2023-05-14T05:02:07;99600.72;;;11.22;88.91
75681;BME280;64294;49.176;16.626;2023-05-14T05:04:33;99597.53;;;11.44;88.59
75681;BME280;64294;49.176;16.626;2023-05-14T05:06:58;99605.50;;;11.59;88.44
75681;BME280;64294;49.176;16.626;2023-05-14T05:09:24;99610.78;;;11.95;86.57
75681;BME280;64294;49.176;16.626;2023-05-14T05:11:49;99601.69;;;12.02;85.16
75681;BME280;64294;49.176;16.626;2023-05-14T05:14:15;99597.78;;;12.18;83.58
75681;BME280;64294;49.176;16.626;2023-05-14T05:16:40;99599.28;;;12.06;83.62
75681;BME280;64294;49.176;16.626;2023-05-14T05:19:05;99590.72;;;12.38;83.09
75681;BME280;64294;49.176;16.626;2023-05-14T05:21:31;99598.09;;;12.41;82.63
75681;BME280;64294;49.176;16.626;2023-05-14T05:23:56;99587.56;;;12.55;81.30
75681;BME280;64294;49.176;16.626;2023-05-14T05:26:24;99600.28;;;12.82;78.76
75681;BME280;64294;49.176;16.626;2023-05-14T05:28:50;99596.63;;;13.21;77.24
75681;BME280;64294;49.176;16.626;2023-05-14T05:31:16;99594.22;;;13.25;76.03
75681;BME280;64294;49.176;16.626;2023-05-14T05:33:41;99599.22;;;13.19;76.26
75681;BME280;64294;49.176;16.626;2023-05-14T05:36:07;99600.41;;;13.24;75.53
75681;BME280;64294;49.176;16.626;2023-05-14T05:38:32;99585.66;;;13.39;75.07
75681;BME280;64294;49.176;16.626;2023-05-14T05:40:58;99578.72;;;13.60;74.31
75681;BME280;64294;49.176;16.626;2023-05-14T05:43:23;99579.47;;;13.82;73.07
75681;BME280;64294;49.176;16.626;2023-05-14T05:45:49;99580.31;;;13.98;72.18
75681;BME280;64294;49.176;16.626;2023-05-14T05:48:14;99581.13;;;14.06;71.58
75681;BME280;64294;49.176;16.626;2023-05-14T05:50:39;99571.25;;;14.56;70.72
75681;BME280;64294;49.176;16.626;2023-05-14T05:53:05;99572.81;;;14.72;69.67
75681;BME280;64294;49.176;16.626;2023-05-14T05:55:30;99574.38;;;14.89;68.40
75681;BME280;64294;49.176;16.626;2023-05-14T05:57:56;99565.72;;;14.94;67.01
75681;BME280;64294;49.176;16.626;2023-05-14T06:00:21;99581.22;;;15.24;66.48
75681;BME280;64294;49.176;16.626;2023-05-14T06:02:47;99577.13;;;15.48;64.77
75681;BME280;64294;49.176;16.626;2023-05-14T06:05:13;99578.28;;;15.60;65.55
75681;BME280;64294;49.176;16.626;2023-05-14T06:07:38;99573.75;;;15.87;63.97
75681;BME280;64294;49.176;16.626;2023-05-14T06:10:04;99575.44;;;15.90;62.64
75681;BME280;64294;49.176;16.626;2023-05-14T06:12:30;99571.41;;;16.16;62.62
75681;BME280;64294;49.176;16.626;2023-05-14T06:14:55;99575.53;;;16.30;62.32
75681;BME280;64294;49.176;16.626;2023-05-14T06:17:22;99579.91;;;16.24;63.14
75681;BME280;64294;49.176;16.626;2023-05-14T06:19:48;99583.88;;;16.13;63.22
75681;BME280;64294;49.176;16.626;2023-05-14T06:22:14;99579.44;;;16.50;62.42
75681;BME280;64294;49.176;16.626;2023-05-14T06:24:39;99579.13;;;16.31;63.11
75681;BME280;64294;49.176;16.626;2023-05-14T06:27:05;99573.72;;;15.57;62.69
75681;BME280;64294;49.176;16.626;2023-05-14T06:29:30;99572.81;;;15.69;63.74
75681;BME280;64294;49.176;16.626;2023-05-14T06:32:00;99579.22;;;15.78;62.35
75681;BME280;64294;49.176;16.626;2023-05-14T06:34:26;99580.50;;;15.54;62.82
75681;BME280;64294;49.176;16.626;2023-05-14T06:36:51;99572.59;;;15.90;62.69
75681;BME280;64294;49.176;16.626;2023-05-14T06:39:17;99581.50;;;15.64;62.69
75681;BME280;64294;49.176;16.626;2023-05-14T06:41:42;99573.88;;;15.13;63.88
75681;BME280;64294;49.176;16.626;2023-05-14T06:44:07;99572.31;;;15.04;66.11
75681;BME280;64294;49.176;16.626;2023-05-14T06:46:33;99561.59;;;15.18;65.48
75681;BME280;64294;49.176;16.626;2023-05-14T06:48:58;99572.78;;;15.47;64.73
75681;BME280;64294;49.176;16.626;2023-05-14T06:51:24;99574.84;;;15.54;66.57
75681;BME280;64294;49.176;16.626;2023-05-14T06:53:49;99566.72;;;15.35;66.25
75681;BME280;64294;49.176;16.626;2023-05-14T06:56:16;99561.75;;;14.97;65.24
75681;BME280;64294;49.176;16.626;2023-05-14T06:58:41;99566.28;;;14.49;65.91
75681;BME280;64294;49.176;16.626;2023-05-14T07:01:07;99569.13;;;14.49;67.01
75681;BME280;64294;49.176;16.626;2023-05-14T07:03:32;99561.16;;;14.40;68.22
75681;BME280;64294;49.176;16.626;2023-05-14T07:05:58;99560.06;;;13.86;70.25
75681;BME280;64294;49.176;16.626;2023-05-14T07:08:23;99548.69;;;14.35;70.50
75681;BME280;64294;49.176;16.626;2023-05-14T07:10:49;99544.03;;;14.45;70.18
75681;BME280;64294;49.176;16.626;2023-05-14T07:13:14;99539.69;;;14.44;69.43
75681;BME280;64294;49.176;16.626;2023-05-14T07:15:39;99530.34;;;14.65;69.08
75681;BME280;64294;49.176;16.626;2023-05-14T07:18:05;99530.97;;;14.78;69.32
75681;BME280;64294;49.176;16.626;2023-05-14T07:20:30;99534.00;;;14.96;68.01
75681;BME280;64294;49.176;16.626;2023-05-14T07:22:55;99529.13;;;15.11;68.24
75681;BME280;64294;49.176;16.626;2023-05-14T07:25:21;99531.59;;;15.23;68.03
75681;BME280;64294;49.176;16.626;2023-05-14T07:27:46;99525.41;;;15.62;65.94
75681;BME280;64294;49.176;16.626;2023-05-14T07:30:12;99525.03;;;15.66;66.74
75681;BME280;64294;49.176;16.626;2023-05-14T07:32:37;99535.56;;;15.88;64.84
75681;BME280;64294;49.176;16.626;2023-05-14T07:35:03;99539.31;;;16.06;62.00
75681;BME280;64294;49.176;16.626;2023-05-14T07:37:29;99533.25;;;16.10;61.72
75681;BME280;64294;49.176;16.626;2023-05-14T07:39:54;99527.81;;;16.52;60.86
75681;BME280;64294;49.176;16.626;2023-05-14T07:42:20;99526.97;;;16.74;60.23
75681;BME280;64294;49.176;16.626;2023-05-14T07:44:45;99526.03;;;17.04;60.47
75681;BME280;64294;49.176;16.626;2023-05-14T07:47:11;99527.38;;;16.63;60.45
75681;BME280;64294;49.176;16.626;2023-05-14T07:49:36;99523.63;;;16.60;60.42
75681;BME280;64294;49.176;16.626;2023-05-14T07:52:01;99521.06;;;16.80;61.63
75681;BME280;64294;49.176;16.626;2023-05-14T07:54:27;99524.19;;;16.99;59.84
75681;BME280;64294;49.176;16.626;2023-05-14T07:56:52;99525.06;;;17.34;58.79
75681;BME280;64294;49.176;16.626;2023-05-14T07:59:18;99522.59;;;16.33;60.98
75681;BME280;64294;49.176;16.626;2023-05-14T08:01:43;99521.03;;;16.47;60.66
75681;BME280;64294;49.176;16.626;2023-05-14T08:04:08;99516.84;;;16.56;61.95
75681;BME280;64294;49.176;16.626;2023-05-14T08:06:36;99524.94;;;16.12;62.69
75681;BME280;64294;49.176;16.626;2023-05-14T08:09:02;99518.53;;;16.03;62.34
75681;BME280;64294;49.176;16.626;2023-05-14T08:11:30;99513.00;;;16.13;62.88
75681;BME280;64294;49.176;16.626;2023-05-14T08:13:55;99513.53;;;16.27;60.58
75681;BME280;64294;49.176;16.626;2023-05-14T08:16:21;99504.59;;;15.52;61.74
75681;BME280;64294;49.176;16.626;2023-05-14T08:18:47;99508.00;;;15.43;62.10
75681;BME280;64294;49.176;16.626;2023-05-14T08:21:13;99512.50;;;15.00;63.08
75681;BME280;64294;49.176;16.626;2023-05-14T08:23:38;99501.56;;;15.04;63.46
75681;BME280;64294;49.176;16.626;2023-05-14T08:26:04;99508.38;;;15.39;64.33
75681;BME280;64294;49.176;16.626;2023-05-14T08:28:29;99512.34;;;15.52;62.41
75681;BME280;64294;49.176;16.626;2023-05-14T08:30:54;99492.72;;;15.69;61.81
75681;BME280;64294;49.176;16.626;2023-05-14T08:33:20;99499.69;;;15.75;60.56
75681;BME280;64294;49.176;16.626;2023-05-14T08:35:45;99504.06;;;15.69;60.84
75681;BME280;64294;49.176;16.626;2023-05-14T08:38:10;99503.09;;;15.82;62.04
75681;BME280;64294;49.176;16.626;2023-05-14T08:40:36;99501.00;;;15.82;61.18
75681;BME280;64294;49.176;16.626;2023-05-14T08:43:01;99494.41;;;15.57;61.35
75681;BME280;64294;49.176;16.626;2023-05-14T08:45:29;99498.34;;;15.84;58.61
75681;BME280;64294;49.176;16.626;2023-05-14T08:47:58;99492.13;;;15.78;59.66
75681;BME280;64294;49.176;16.626;2023-05-14T08:50:25;99483.41;;;15.91;58.78
75681;BME280;64294;49.176;16.626;2023-05-14T08:52:51;99481.16;;;15.90;59.36
75681;BME280;64294;49.176;16.626;2023-05-14T08:55:17;99481.19;;;15.36;60.42
75681;BME280;64294;49.176;16.626;2023-05-14T08:57:44;99481.94;;;15.37;60.28
75681;BME280;64294;49.176;16.626;2023-05-14T09:00:11;99479.31;;;15.39;59.69
75681;BME280;64294;49.176;16.626;2023-05-14T09:02:38;99479.31;;;15.31;59.17
75681;BME280;64294;49.176;16.626;2023-05-14T09:05:04;99476.66;;;15.71;58.36
75681;BME280;64294;49.176;16.626;2023-05-14T09:07:32;99476.84;;;16.29;56.68
75681;BME280;64294;49.176;16.626;2023-05-14T09:09:58;99482.13;;;15.69;57.58
75681;BME280;64294;49.176;16.626;2023-05-14T09:12:24;99484.53;;;15.96;57.72
75681;BME280;64294;49.176;16.626;2023-05-14T09:14:50;99471.94;;;16.29;57.72
75681;BME280;64294;49.176;16.626;2023-05-14T09:17:17;99480.81;;;16.74;55.79
75681;BME280;64294;49.176;16.626;2023-05-14T09:19:43;99484.88;;;16.08;56.26
75681;BME280;64294;49.176;16.626;2023-05-14T09:22:13;99483.84;;;15.65;57.82
75681;BME280;64294;49.176;16.626;2023-05-14T09:24:39;99478.56;;;15.08;60.56
75681;BME280;64294;49.176;16.626;2023-05-14T09:27:05;99473.09;;;15.25;62.36
75681;BME280;64294;49.176;16.626;2023-05-14T09:29:31;99491.00;;;14.90;64.52
75681;BME280;64294;49.176;16.626;2023-05-14T09:31:58;99485.72;;;14.94;66.53
75681;BME280;64294;49.176;16.626;2023-05-14T09:34:26;99480.28;;;14.37;68.79
75681;BME280;64294;49.176;16.626;2023-05-14T09:36:56;99490.56;;;14.19;69.07
75681;BME280;64294;49.176;16.626;2023-05-14T09:39:23;99487.56;;;13.88;69.52
75681;BME280;64294;49.176;16.626;2023-05-14T09:41:49;99483.16;;;14.08;70.93
75681;BME280;64294;49.176;16.626;2023-05-14T09:44:16;99489.66;;;13.88;72.74
75681;BME280;64294;49.176;16.626;2023-05-14T09:46:45;99476.16;;;14.02;72.51
75681;BME280;64294;49.176;16.626;2023-05-14T09:49:11;99482.94;;;13.99;72.35
75681;BME280;64294;49.176;16.626;2023-05-14T09:51:37;99487.16;;;13.77;72.68
75681;BME280;64294;49.176;16.626;2023-05-14T09:54:04;99480.31;;;13.72;73.48
75681;BME280;64294;49.176;16.626;2023-05-14T09:56:31;99479.94;;;14.04;72.45
75681;BME280;64294;49.176;16.626;2023-05-14T09:58:56;99478.81;;;14.43;71.04
75681;BME280;64294;49.176;16.626;2023-05-14T10:01:22;99483.78;;;14.73;69.76
75681;BME280;64294;49.176;16.626;2023-05-14T10:03:49;99488.56;;;14.42;70.78
75681;BME280;64294;49.176;16.626;2023-05-14T10:06:15;99499.25;;;13.85;72.49
75681;BME280;64294;49.176;16.626;2023-05-14T10:08:44;99498.03;;;13.73;74.14
75681;BME280;64294;49.176;16.626;2023-05-14T10:11:18;99491.00;;;13.58;75.21
75681;BME280;64294;49.176;16.626;2023-05-14T10:13:54;99497.38;;;13.87;75.89
75681;BME280;64294;49.176;16.626;2023-05-14T10:16:27;99493.56;;;13.77;77.18
75681;BME280;64294;49.176;16.626;2023-05-14T10:19:00;99495.13;;;13.57;78.49
75681;BME280;64294;49.176;16.626;2023-05-14T10:21:28;99488.38;;;13.60;78.85
75681;BME280;64294;49.176;16.626;2023-05-14T10:23:56;99485.19;;;13.64;82.33
75681;BME280;64294;49.176;16.626;2023-05-14T10:26:22;99467.84;;;13.60;83.35
75681;BME280;64294;49.176;16.626;2023-05-14T10:28:48;99478.28;;;13.44;83.44
75681;BME280;64294;49.176;16.626;2023-05-14T10:31:13;99468.03;;;13.62;82.20
75681;BME280;64294;49.176;16.626;2023-05-14T10:33:46;99474.06;;;13.17;83.91
75681;BME280;64294;49.176;16.626;2023-05-14T10:36:14;99473.81;;;13.56;83.54
75681;BME280;64294;49.176;16.626;2023-05-14T10:38:41;99467.56;;;13.22;85.13
75681;BME280;64294;49.176;16.626;2023-05-14T10:41:10;99471.09;;;13.43;85.15
75681;BME280;64294;49.176;16.626;2023-05-14T10:43:38;99472.31;;;13.27;84.05
75681;BME280;64294;49.176;16.626;2023-05-14T10:46:04;99471.00;;;13.28;86.10
75681;BME280;64294;49.176;16.626;2023-05-14T10:48:31;99462.97;;;13.68;85.67
75681;BME280;64294;49.176;16.626;2023-05-14T10:50:57;99464.59;;;13.84;85.12
75681;BME280;64294;49.176;16.626;2023-05-14T10:53:34;99456.97;;;14.08;88.79
75681;BME280;64294;49.176;16.626;2023-05-14T10:56:11;99452.97;;;13.96;82.10
75681;BME280;64294;49.176;16.626;2023-05-14T10:58:39;99449.47;;;14.18;82.35
75681;BME280;64294;49.176;16.626;2023-05-14T11:01:09;99445.59;;;14.36;81.81
75681;BME280;64294;49.176;16.626;2023-05-14T11:03:40;99435.34;;;14.92;83.21
75681;BME280;64294;49.176;16.626;2023-05-14T11:06:07;99434.19;;;15.18;81.20
75681;BME280;64294;49.176;16.626;2023-05-14T11:08:32;99437.38;;;14.61;80.16
75681;BME280;64294;49.176;16.626;2023-05-14T11:10:59;99432.50;;;15.00;80.06
75681;BME280;64294;49.176;16.626;2023-05-14T11:13:27;99437.41;;;15.22;80.54
75681;BME280;64294;49.176;16.626;2023-05-14T11:15:53;99431.91;;;15.39;82.69
75681;BME280;64294;49.176;16.626;2023-05-14T11:18:30;99433.22;;;15.61;83.01
75681;BME280;64294;49.176;16.626;2023-05-14T11:20:58;99431.16;;;15.62;80.08
75681;BME280;64294;49.176;16.626;2023-05-14T11:23:24;99426.53;;;15.89;81.22
75681;BME280;64294;49.176;16.626;2023-05-14T11:25:51;99429.56;;;15.91;77.09
75681;BME280;64294;49.176;16.626;2023-05-14T11:28:19;99420.94;;;15.51;75.69
75681;BME280;64294;49.176;16.626;2023-05-14T11:30:46;99420.03;;;15.33;78.01
75681;BME280;64294;49.176;16.626;2023-05-14T11:33:11;99419.31;;;15.25;77.63
75681;BME280;64294;49.176;16.626;2023-05-14T11:35:36;99416.44;;;15.48;80.40
75681;BME280;64294;49.176;16.626;2023-05-14T11:38:02;99423.03;;;15.51;83.20
75681;BME280;64294;49.176;16.626;2023-05-14T11:40:27;99418.84;;;15.74;80.34
75681;BME280;64294;49.176;16.626;2023-05-14T11:42:53;99416.41;;;15.71;82.55
75681;BME280;64294;49.176;16.626;2023-05-14T11:45:25;99409.06;;;15.37;84.33
75681;BME280;64294;49.176;16.626;2023-05-14T11:47:51;99414.19;;;15.16;85.05
75681;BME280;64294;49.176;16.626;2023-05-14T11:50:18;99413.63;;;14.79;87.63
75681;BME280;64294;49.176;16.626;2023-05-14T11:52:43;99400.59;;;14.69;89.54
75681;BME280;64294;49.176;16.626;2023-05-14T11:55:11;99392.13;;;14.61;89.16
75681;BME280;64294;49.176;16.626;2023-05-14T11:57:37;99392.31;;;14.86;88.53
75681;BME280;64294;49.176;16.626;2023-05-14T12:00:03;99402.69;;;14.83;90.27
75681;BME280;64294;49.176;16.626;2023-05-14T12:02:31;99387.78;;;14.68;87.66
75681;BME280;64294;49.176;16.626;2023-05-14T12:04:59;99392.06;;;14.38;86.98
75681;BME280;64294;49.176;16.626;2023-05-14T12:07:27;99399.59;;;14.36;86.66
75681;BME280;64294;49.176;16.626;2023-05-14T12:09:53;99391.97;;;14.08;89.07
75681;BME280;64294;49.176;16.626;2023-05-14T12:12:22;99393.28;;;13.99;90.50
75681;BME280;64294;49.176;16.626;2023-05-14T12:14:49;99396.41;;;13.88;90.13
75681;BME280;64294;49.176;16.626;2023-05-14T12:19:42;99386.16;;;13.70;94.00
75681;BME280;64294;49.176;16.626;2023-05-14T12:22:09;99389.56;;;13.76;94.18
75681;BME280;64294;49.176;16.626;2023-05-14T12:24:35;99389.44;;;13.45;94.75
75681;BME280;64294;49.176;16.626;2023-05-14T12:27:01;99386.13;;;13.62;95.42
75681;BME280;64294;49.176;16.626;2023-05-14T12:29:27;99388.13;;;13.46;90.56
75681;BME280;64294;49.176;16.626;2023-05-14T12:31:56;99372.50;;;13.45;94.75
75681;BME280;64294;49.176;16.626;2023-05-14T12:34:25;99375.13;;;13.43;96.65
75681;BME280;64294;49.176;16.626;2023-05-14T12:36:50;99372.75;;;13.26;93.86
75681;BME280;64294;49.176;16.626;2023-05-14T12:39:16;99373.56;;;13.71;97.89
75681;BME280;64294;49.176;16.626;2023-05-14T12:41:42;99372.84;;;13.78;97.94
75681;BME280;64294;49.176;16.626;2023-05-14T12:44:08;99370.69;;;14.07;96.58
75681;BME280;64294;49.176;16.626;2023-05-14T12:46:33;99369.91;;;14.06;94.87
75681;BME280;64294;49.176;16.626;2023-05-14T12:48:59;99362.50;;;13.88;96.60